EST,Max TemperatureF,Mean TemperatureF,Min TemperatureF,Max Dew PointF,MeanDew PointF,Min DewpointF,Max Humidity, Mean Humidity, Min Humidity, Max Sea Level PressureIn, Mean Sea Level PressureIn, Min Sea Level PressureIn, Max VisibilityMiles, Mean VisibilityMiles, Min VisibilityMiles, Max Wind SpeedMPH, Mean Wind SpeedMPH, Max Gust SpeedMPH,PrecipitationIn, CloudCover, Events, WindDirDegrees
2012-11-1,51,43,35,36,30,24,85,66,46,29.83,29.75,29.69,10,10,10,17,11,25,0.00,6,,304
2012-11-2,42,38,33,31,28,25,76,66,55,30.11,29.96,29.83,10,10,9,16,8,24,T,7,Rain,322
2012-11-3,41,34,27,29,26,24,92,76,59,30.22,30.18,30.12,10,10,10,9,4,14,T,3,,342
2012-11-4,37,29,21,26,23,19,92,76,59,30.24,30.20,30.16,10,10,9,9,2,13,0.00,5,,5
2012-11-5,43,31,18,27,21,15,91,71,51,30.25,30.21,30.17,10,10,7,9,1,14,0.00,1,,66
2012-11-6,44,32,19,28,24,17,91,70,49,30.18,30.07,29.98,10,9,5,14,4,20,0.00,4,,132
2012-11-7,49,38,27,29,27,23,85,66,46,30.17,30.07,29.99,10,10,7,9,3,13,0.00,2,,41
2012-11-8,51,37,23,31,26,19,92,67,42,30.25,30.19,30.15,10,8,4,8,1,12,0.00,0,,246
2012-11-9,57,43,29,44,34,26,92,70,47,30.21,30.15,30.09,10,5,2,14,2,17,0.02,3,Rain,160
2012-11-10,64,56,47,48,45,43,93,73,52,30.12,30.06,29.98,10,8,4,21,8,28,0.00,5,,163
2012-11-11,68,61,54,47,43,36,62,51,39,30.10,30.02,29.92,10,10,10,26,15,39,0.00,1,,187
2012-11-12,61,47,32,52,37,21,96,71,46,30.27,30.02,29.90,10,9,4,21,11,31,0.35,7,Rain,247
2012-11-13,34,29,23,24,20,18,81,66,51,30.56,30.44,30.24,10,10,10,13,6,20,T,6,Snow,291
2012-11-14,41,30,19,26,21,15,84,67,50,30.60,30.54,30.45,10,10,6,10,2,15,0.00,0,,147
2012-11-15,47,35,22,29,25,20,92,71,49,30.44,30.40,30.35,10,8,4,6,0,9,0.00,1,,5
2012-11-16,53,37,20,33,25,17,92,67,41,30.52,30.47,30.40,10,8,4,7,1,10,0.00,0,,241
2012-11-17,53,38,22,32,27,21,88,63,38,30.62,30.57,30.53,10,8,4,12,2,15,0.00,0,,134
2012-11-18,55,44,33,38,34,26,100,66,32,30.54,30.49,30.42,10,4,0,12,5,14,0.00,3,Fog,122
2012-11-19,58,44,30,34,31,28,100,68,36,30.40,30.32,30.17,10,6,0,12,2,14,0.00,1,Fog,147
2012-11-20,57,47,37,40,37,33,86,69,51,30.17,30.14,30.09,10,9,2,7,1,7,0.00,6,,117
2012-11-21,56,43,29,42,34,27,100,78,55,30.26,30.19,30.15,8,3,0,10,1,15,0.00,1,Fog,212
2012-11-22,62,51,40,44,40,38,92,67,42,30.16,30.02,29.79,10,7,2,22,9,31,0.01,1,Rain,205
2012-11-23,55,43,30,48,31,21,85,72,59,30.06,29.85,29.72,10,8,2,25,15,36,0.05,8,Rain-Snow,268
2012-11-24,31,30,28,20,18,17,69,64,58,30.16,30.11,30.06,10,10,10,20,11,28,0.00,8,,304
2012-11-25,36,31,26,26,23,19,75,70,64,30.04,29.92,29.83,10,9,2,14,9,20,T,8,Snow,243
2012-11-26,35,31,27,26,22,16,85,68,51,30.31,30.18,30.02,10,10,7,10,3,15,0.00,7,,311
2012-11-27,35,27,19,18,15,12,77,60,43,30.38,30.32,30.26,10,10,10,10,4,15,0.00,1,,275
2012-11-28,40,33,25,25,18,14,81,63,44,30.34,30.28,30.23,10,10,10,15,8,21,0.00,4,,244
2012-11-29,48,38,27,27,25,21,75,59,42,30.31,30.25,30.19,10,10,7,18,8,23,0.00,1,,221
2012-11-30,45,40,35,34,30,27,92,75,58,30.25,30.19,30.13,10,8,4,14,6,18,0.00,7,,113